Time;durP1;ratioP1;P1;durP2;ratioP2;P2;SDS_P1;SDS_P2;PMS_P1;PMS_P2;Temp;Humidity;BMP_temperature;BMP_pressure;BME280_temperature;BME280_humidity;BME280_pressure;Samples;Min_cycle;Max_cycle;Signal;HPM_P1;HPM_P2
2022/06/10 00:00:47;;;;;;;5.33;2.73;;;13.20;99.90;;;;;;5096960;28;20597;-75
2022/06/10 00:03:15;;;;;;;3.17;2.87;;;13.20;99.90;;;;;;5097589;28;20624;-75
2022/06/10 00:05:46;;;;;;;2.67;2.47;;;13.30;99.90;;;;;;5096530;28;20613;-75
2022/06/10 00:08:16;;;;;;;4.33;3.00;;;13.20;99.90;;;;;;5097235;28;21159;-75
2022/06/10 00:10:45;;;;;;;3.37;2.97;;;13.10;99.90;;;;;;5097106;28;20976;-75
2022/06/10 00:13:13;;;;;;;3.87;3.03;;;13.00;99.90;;;;;;5096926;28;21219;-75
2022/06/10 00:15:40;;;;;;;5.57;3.23;;;12.90;99.90;;;;;;5096753;28;20613;-75
2022/06/10 00:18:07;;;;;;;4.63;2.93;;;12.70;99.90;;;;;;5096317;28;20616;-75
2022/06/10 00:20:35;;;;;;;5.53;2.90;;;12.70;99.90;;;;;;5094323;28;20616;-75
2022/06/10 00:23:02;;;;;;;4.17;3.20;;;12.70;99.90;;;;;;5096982;28;20613;-75
2022/06/10 00:25:28;;;;;;;5.43;3.00;;;12.70;99.90;;;;;;5096786;28;20601;-76
2022/06/10 00:27:55;;;;;;;6.93;3.10;;;12.70;99.90;;;;;;5096490;28;21153;-76
2022/06/10 00:30:25;;;;;;;5.73;3.87;;;12.70;99.90;;;;;;5096655;28;20199;-75
2022/06/10 00:32:52;;;;;;;5.37;2.80;;;12.60;99.90;;;;;;5096003;28;20665;-74
2022/06/10 00:35:19;;;;;;;5.50;2.80;;;12.60;99.90;;;;;;5097237;28;20580;-74
2022/06/10 00:37:45;;;;;;;7.07;2.53;;;12.70;99.90;;;;;;5097445;28;20583;-75
2022/06/10 00:40:16;;;;;;;3.97;3.30;;;12.70;99.90;;;;;;5097921;28;20609;-75
2022/06/10 00:42:43;;;;;;;4.97;3.47;;;12.70;99.90;;;;;;5097332;28;20560;-74
2022/06/10 00:45:44;;;;;;;6.30;3.45;;;12.60;99.90;;;;;;5096946;28;20204;-75
2022/06/10 00:48:15;;;;;;;7.38;3.03;;;12.50;99.90;;;;;;5097598;28;20246;-75
2022/06/10 00:50:43;;;;;;;3.25;2.80;;;12.60;99.90;;;;;;5096430;28;20184;-74
2022/06/10 00:53:12;;;;;;;3.60;2.90;;;12.50;99.90;;;;;;5096607;28;20215;-75
2022/06/10 00:55:40;;;;;;;5.05;2.97;;;12.40;99.90;;;;;;5097156;28;20206;-75
2022/06/10 00:58:34;;;;;;;3.78;2.75;;;12.40;99.90;;;;;;5096489;28;20211;-75
2022/06/10 01:01:02;;;;;;;3.53;3.23;;;12.50;99.90;;;;;;5098690;28;20191;-77
2022/06/10 01:03:30;;;;;;;4.00;2.40;;;12.40;99.90;;;;;;5106318;28;20651;-77
2022/06/10 01:05:56;;;;;;;4.37;3.10;;;12.30;99.90;;;;;;5105847;28;20206;-77
2022/06/10 01:08:23;;;;;;;7.50;3.25;;;12.20;99.90;;;;;;5105954;28;20632;-77
2022/06/10 01:11:04;;;;;;;3.97;3.58;;;12.30;99.90;;;;;;5105561;28;20199;-77
2022/06/10 01:13:45;;;;;;;3.85;3.58;;;12.30;99.90;;;;;;5104740;28;20215;-77
2022/06/10 01:16:58;;;;;;;3.60;3.30;;;12.30;99.90;;;;;;5103992;28;20656;-77
2022/06/10 01:19:58;;;;;;;5.07;3.58;;;12.20;99.90;;;;;;5093682;28;20203;-76
2022/06/10 01:22:46;;;;;;;5.65;3.65;;;12.30;99.90;;;;;;5103127;28;20180;-77
2022/06/10 01:25:31;;;;;;;5.07;3.20;;;12.20;99.90;;;;;;5103134;28;20724;-77
2022/06/10 01:28:18;;;;;;;6.45;4.45;;;12.20;99.90;;;;;;5104306;28;20586;-77
2022/06/10 01:31:03;;;;;;;6.80;3.50;;;12.00;99.90;;;;;;5103167;28;20214;-77
2022/06/10 01:33:58;;;;;;;5.80;3.80;;;12.00;99.90;;;;;;5104861;28;20743;-76
2022/06/10 01:37:03;;;;;;;4.13;3.50;;;11.90;99.90;;;;;;5094713;28;20271;-78
2022/06/10 01:39:40;;;;;;;6.13;4.10;;;12.00;99.90;;;;;;5102137;28;20724;-77
2022/06/10 01:42:12;;;;;;;7.15;3.95;;;11.90;99.90;;;;;;5104987;28;20254;-78
2022/06/10 01:44:41;;;;;;;6.63;4.05;;;12.00;99.90;;;;;;5104526;28;20539;-79
2022/06/10 01:47:26;;;;;;;7.35;4.85;;;12.00;99.90;;;;;;5104054;28;20219;-78
2022/06/10 01:50:08;;;;;;;5.88;3.63;;;11.90;99.90;;;;;;5104650;28;20179;-77
2022/06/10 01:52:53;;;;;;;15.85;4.10;;;11.90;99.90;;;;;;5103625;28;20209;-77
2022/06/10 01:55:38;;;;;;;4.45;4.15;;;11.80;99.90;;;;;;5103256;28;20194;-77
2022/06/10 01:58:07;;;;;;;4.65;4.25;;;11.70;99.90;;;;;;5101360;28;20203;-77
2022/06/10 02:00:38;;;;;;;6.18;4.15;;;11.70;99.90;;;;;;5103743;28;20203;-77
2022/06/10 02:03:18;;;;;;;7.88;4.57;;;11.60;99.90;;;;;;5103133;28;20270;-77
2022/06/10 02:05:53;;;;;;;8.90;4.70;;;11.70;99.90;;;;;;5101555;28;20270;-77
2022/06/10 02:08:27;;;;;;;6.50;4.13;;;11.70;99.90;;;;;;5101797;28;20210;-77
2022/06/10 02:11:10;;;;;;;4.50;4.10;;;11.70;99.90;;;;;;5107092;28;20252;-77
2022/06/10 02:13:50;;;;;;;6.53;4.72;;;11.60;99.90;;;;;;5105540;28;20309;-77
2022/06/10 02:16:22;;;;;;;6.15;4.25;;;11.60;99.90;;;;;;5105772;28;20267;-77
2022/06/10 02:18:52;;;;;;;12.38;5.07;;;11.60;99.90;;;;;;5105967;28;20186;-77
2022/06/10 02:21:28;;;;;;;5.68;4.25;;;11.70;99.90;;;;;;5105556;28;20198;-77
2022/06/10 02:24:09;;;;;;;5.15;4.50;;;11.60;99.90;;;;;;5106231;28;20191;-77
2022/06/10 02:26:38;;;;;;;5.25;4.72;;;11.50;99.90;;;;;;5102482;28;20252;-77
2022/06/10 02:29:11;;;;;;;5.80;4.80;;;11.50;99.90;;;;;;5104943;28;20662;-77
2022/06/10 02:31:45;;;;;;;9.23;4.60;;;11.50;99.90;;;;;;5105805;28;20184;-77
2022/06/10 02:34:12;;;;;;;9.50;4.82;;;11.60;99.90;;;;;;5104991;28;20203;-77
2022/06/10 02:36:45;;;;;;;8.43;5.50;;;11.60;99.90;;;;;;5103697;28;20199;-77
2022/06/10 02:39:41;;;;;;;7.15;4.45;;;11.60;99.90;;;;;;5105393;28;20194;-77
2022/06/10 02:42:24;;;;;;;5.93;4.65;;;11.60;99.90;;;;;;5085625;28;20263;-77
2022/06/10 02:45:08;;;;;;;8.13;4.63;;;11.50;99.90;;;;;;5103755;28;20263;-77
2022/06/10 02:47:53;;;;;;;5.05;4.55;;;11.50;99.90;;;;;;5104582;28;20301;-79
2022/06/10 02:50:20;;;;;;;9.65;5.40;;;11.50;99.90;;;;;;5104313;28;20638;-77
2022/06/10 02:52:47;;;;;;;7.00;5.22;;;11.40;99.90;;;;;;5105101;28;20211;-77
2022/06/10 02:55:23;;;;;;;5.90;4.68;;;11.40;99.90;;;;;;5104335;28;20255;-77
2022/06/10 03:01:13;;;;;;;12.32;5.50;;;11.40;99.90;;;;;;5103341;28;20180;-77
2022/06/10 03:03:45;;;;;;;11.32;5.43;;;11.40;99.90;;;;;;5103777;28;20212;-77
2022/06/10 03:06:43;;;;;;;5.85;5.22;;;11.40;99.90;;;;;;5104065;28;20189;-77
2022/06/10 03:09:28;;;;;;;9.77;5.60;;;11.30;99.90;;;;;;5102534;28;20203;-77
2022/06/10 03:12:09;;;;;;;7.68;4.80;;;11.30;99.90;;;;;;5103779;28;20663;-77
2022/06/10 03:14:41;;;;;;;8.43;4.88;;;11.20;99.90;;;;;;5102542;28;20588;-77
2022/06/10 03:17:20;;;;;;;7.78;5.38;;;11.20;99.90;;;;;;5103601;28;20282;-78
2022/06/10 03:20:07;;;;;;;5.88;4.70;;;11.10;99.90;;;;;;5101264;28;20183;-78
2022/06/10 03:23:08;;;;;;;8.25;5.30;;;11.10;99.90;;;;;;5100655;28;20718;-77
2022/06/10 03:25:54;;;;;;;5.80;4.75;;;11.10;99.90;;;;;;5102362;28;20621;-77
2022/06/10 03:28:26;;;;;;;5.60;5.10;;;11.00;99.90;;;;;;5101884;28;20194;-78
2022/06/10 03:31:02;;;;;;;6.97;5.97;;;11.00;99.90;;;;;;5103389;28;20211;-78
2022/06/10 03:33:34;;;;;;;7.28;5.15;;;11.00;99.90;;;;;;5101872;28;20233;-78
2022/06/10 03:36:14;;;;;;;8.82;5.90;;;11.10;99.90;;;;;;5101018;28;20665;-77
2022/06/10 03:38:49;;;;;;;5.93;5.43;;;11.10;99.90;;;;;;5102060;28;20179;-77
2022/06/10 03:41:33;;;;;;;9.95;5.15;;;11.00;99.90;;;;;;5099016;28;20199;-78
2022/06/10 03:44:03;;;;;;;6.47;5.53;;;11.00;99.90;;;;;;5100436;28;20717;-77
2022/06/10 03:46:33;;;;;;;7.90;5.78;;;11.00;99.90;;;;;;5100109;28;20298;-77
2022/06/10 03:49:10;;;;;;;10.95;4.80;;;11.00;99.90;;;;;;5101743;28;20242;-78
2022/06/10 03:51:38;;;;;;;7.97;5.93;;;11.00;99.90;;;;;;5100478;28;20214;-78
2022/06/10 03:54:05;;;;;;;10.00;5.32;;;11.00;99.90;;;;;;5103049;28;20694;-78
2022/06/10 03:56:31;;;;;;;10.27;4.95;;;11.00;99.90;;;;;;5101078;28;20202;-76
2022/06/10 03:58:58;;;;;;;7.65;4.78;;;11.00;99.90;;;;;;5102352;28;20192;-76
2022/06/10 04:01:24;;;;;;;5.32;4.85;;;11.00;99.90;;;;;;5102966;28;20203;-76
2022/06/10 04:03:51;;;;;;;8.57;5.35;;;11.00;99.90;;;;;;5101968;28;20203;-76
2022/06/10 04:06:18;;;;;;;8.68;4.75;;;11.00;99.90;;;;;;5101886;28;20203;-77
2022/06/10 04:08:45;;;;;;;5.90;5.45;;;11.00;99.90;;;;;;5101554;28;20214;-77
2022/06/10 04:11:12;;;;;;;5.85;4.97;;;11.00;99.90;;;;;;5101799;28;20199;-76
2022/06/10 04:13:38;;;;;;;6.15;5.38;;;11.00;99.90;;;;;;5099647;28;20576;-77
2022/06/10 04:16:05;;;;;;;6.38;5.32;;;11.10;99.90;;;;;;5100148;28;20274;-77
2022/06/10 04:18:32;;;;;;;12.10;6.03;;;11.10;99.90;;;;;;5099815;28;20618;-77
2022/06/10 04:20:58;;;;;;;5.60;4.95;;;11.10;99.90;;;;;;5099732;28;20204;-77
2022/06/10 04:23:24;;;;;;;5.70;5.20;;;11.30;99.90;;;;;;5099412;28;20214;-78
2022/06/10 04:25:51;;;;;;;10.82;5.80;;;11.40;99.90;;;;;;5101644;28;20219;-78
2022/06/10 04:28:17;;;;;;;5.65;5.10;;;11.30;99.90;;;;;;5102347;28;20203;-77
2022/06/10 04:30:47;;;;;;;7.32;5.57;;;11.30;99.90;;;;;;5101133;28;20191;-77
2022/06/10 04:33:14;;;;;;;7.40;5.32;;;11.40;99.90;;;;;;5100813;28;20211;-75
2022/06/10 04:35:43;;;;;;;6.28;5.68;;;11.50;99.90;;;;;;5100147;28;20214;-77
2022/06/10 04:38:13;;;;;;;9.20;5.63;;;11.50;99.90;;;;;;5102663;28;20282;-77
2022/06/10 04:40:40;;;;;;;12.43;4.57;;;11.60;99.90;;;;;;5101403;28;20278;-77
2022/06/10 04:43:07;;;;;;;9.43;5.20;;;11.70;99.90;;;;;;5100671;28;20318;-78
2022/06/10 04:45:39;;;;;;;14.65;4.60;;;11.80;99.90;;;;;;5101044;28;20199;-77
2022/06/10 04:48:06;;;;;;;9.70;5.57;;;11.80;99.90;;;;;;5101876;28;20241;-77
2022/06/10 04:50:32;;;;;;;7.33;4.77;;;11.90;99.90;;;;;;5102924;28;20207;-77
2022/06/10 04:52:59;;;;;;;7.10;5.23;;;12.10;99.90;;;;;;5102152;28;20620;-77
2022/06/10 04:55:27;;;;;;;8.60;5.30;;;12.10;99.90;;;;;;5102565;28;20689;-77
2022/06/10 04:57:54;;;;;;;5.53;5.03;;;12.00;99.90;;;;;;5103203;28;20606;-77
2022/06/10 05:00:28;;;;;;;14.67;5.97;;;12.10;99.90;;;;;;5102677;28;20199;-77
2022/06/10 05:02:54;;;;;;;7.50;5.63;;;12.20;99.90;;;;;;5102698;28;20593;-77
2022/06/10 05:05:22;;;;;;;10.33;6.37;;;12.30;99.90;;;;;;5101912;28;20617;-77
2022/06/10 05:07:48;;;;;;;8.83;5.40;;;12.50;99.90;;;;;;5100917;28;20696;-77
2022/06/10 05:10:16;;;;;;;8.05;4.20;;;12.70;99.90;;;;;;5102590;28;20700;-77
2022/06/10 05:12:44;;;;;;;7.40;4.70;;;12.70;99.90;;;;;;5102601;28;20199;-77
2022/06/10 05:15:16;;;;;;;5.10;4.60;;;12.70;99.90;;;;;;5102839;28;20736;-77
2022/06/10 05:17:43;;;;;;;7.17;5.10;;;12.80;99.90;;;;;;5103335;28;20574;-78
2022/06/10 05:20:15;;;;;;;5.80;4.60;;;13.00;99.90;;;;;;5101376;28;20692;-77
2022/06/10 05:22:41;;;;;;;7.97;4.30;;;13.00;99.90;;;;;;5102886;28;20568;-78
2022/06/10 05:25:09;;;;;;;8.23;5.20;;;13.10;99.90;;;;;;5102947;28;20620;-78
2022/06/10 05:27:35;;;;;;;6.07;4.70;;;13.10;99.90;;;;;;5101301;28;20588;-78
2022/06/10 05:30:02;;;;;;;8.20;4.60;;;13.20;99.90;;;;;;5100200;28;20688;-77
2022/06/10 05:32:28;;;;;;;7.37;4.90;;;13.30;99.90;;;;;;5099251;28;21035;-74
2022/06/10 05:34:54;;;;;;;5.20;4.60;;;13.50;99.90;;;;;;5095458;28;20660;-76
2022/06/10 05:37:24;;;;;;;7.33;4.30;;;13.70;99.90;;;;;;5096265;28;20610;-74
2022/06/10 05:39:51;;;;;;;6.83;4.77;;;13.80;99.90;;;;;;5095344;28;20943;-74
2022/06/10 05:42:18;;;;;;;5.90;5.07;;;13.70;99.90;;;;;;5095158;28;20620;-74
2022/06/10 05:44:51;;;;;;;5.60;3.60;;;13.80;99.90;;;;;;5095171;28;20616;-74
2022/06/10 05:47:24;;;;;;;6.53;4.27;;;14.10;99.90;;;;;;5094644;28;20612;-74
2022/06/10 05:49:54;;;;;;;5.07;4.43;;;14.10;99.90;;;;;;5055396;28;21172;-74
2022/06/10 05:52:22;;;;;;;4.50;3.47;;;14.00;99.90;;;;;;5056194;28;20603;-74
2022/06/10 05:54:52;;;;;;;5.47;3.90;;;14.20;99.90;;;;;;5055519;28;21021;-74
2022/06/10 05:57:19;;;;;;;5.10;3.50;;;14.40;99.90;;;;;;5055045;28;20591;-74
2022/06/10 05:59:47;;;;;;;3.53;3.23;;;14.20;99.90;;;;;;5054966;28;20606;-74
2022/06/10 06:02:14;;;;;;;6.50;3.47;;;14.20;99.90;;;;;;5055620;28;20614;-74
2022/06/10 06:04:41;;;;;;;6.60;3.90;;;14.50;99.90;;;;;;5055723;28;20952;-73
2022/06/10 06:07:09;;;;;;;4.80;3.60;;;14.80;99.90;;;;;;5053081;28;21008;-73
2022/06/10 06:09:36;;;;;;;3.13;2.80;;;14.90;99.90;;;;;;5054082;28;21161;-75
2022/06/10 06:12:03;;;;;;;6.50;3.03;;;15.20;99.90;;;;;;5054353;28;20602;-75
2022/06/10 06:14:31;;;;;;;5.28;3.20;;;14.90;99.90;;;;;;5035780;28;20761;-73
2022/06/10 06:17:00;;;;;;;4.37;3.73;;;15.00;99.90;;;;;;5054545;28;20672;-77
2022/06/10 06:19:28;;;;;;;7.23;3.43;;;15.00;99.90;;;;;;5055893;28;20611;-74
2022/06/10 06:21:54;;;;;;;4.30;3.30;;;15.00;99.90;;;;;;5052729;28;20610;-73
2022/06/10 06:24:21;;;;;;;6.97;2.93;;;15.10;99.90;;;;;;5053319;28;20619;-74
2022/06/10 06:26:48;;;;;;;4.03;3.67;;;15.30;99.90;;;;;;5053850;28;21162;-74
2022/06/10 06:29:15;;;;;;;3.50;3.10;;;15.40;99.90;;;;;;5053933;28;20611;-74
2022/06/10 06:31:41;;;;;;;4.93;3.40;;;15.50;99.90;;;;;;5053409;28;20615;-73
2022/06/10 06:34:08;;;;;;;8.87;3.50;;;15.50;99.90;;;;;;5053630;28;20664;-74
2022/06/10 06:36:42;;;;;;;6.00;3.63;;;15.80;99.90;;;;;;5053811;28;20615;-75
2022/06/10 06:39:09;;;;;;;5.70;3.30;;;16.10;99.90;;;;;;5053863;28;20623;-74
2022/06/10 06:41:35;;;;;;;4.30;3.20;;;16.30;99.90;;;;;;5054424;28;20611;-73
2022/06/10 06:44:04;;;;;;;7.60;3.07;;;16.20;99.90;;;;;;5054358;28;20619;-74
2022/06/10 06:46:33;;;;;;;4.63;4.20;;;16.20;99.90;;;;;;5053609;28;20676;-75
2022/06/10 06:49:01;;;;;;;4.43;2.50;;;16.00;99.90;;;;;;5081060;28;20664;-75
2022/06/10 06:51:28;;;;;;;5.10;3.07;;;16.20;99.90;;;;;;5094745;28;20614;-74
2022/06/10 06:53:55;;;;;;;7.00;2.97;;;16.40;99.90;;;;;;5094672;28;20657;-74
2022/06/10 06:56:21;;;;;;;3.90;2.90;;;16.50;99.90;;;;;;5096481;28;20609;-74
2022/06/10 06:58:48;;;;;;;3.77;3.00;;;16.50;99.90;;;;;;5098395;28;21143;-75
2022/06/10 07:01:14;;;;;;;8.80;3.47;;;16.80;99.90;;;;;;5098635;28;20620;-73
2022/06/10 07:03:41;;;;;;;8.57;4.17;;;16.70;99.90;;;;;;5097389;28;20601;-74
2022/06/10 07:06:07;;;;;;;6.27;3.33;;;16.70;99.90;;;;;;5098974;28;20708;-73
2022/06/10 07:08:33;;;;;;;8.20;2.77;;;16.80;99.90;;;;;;5099284;28;20634;-74
2022/06/10 07:11:02;;;;;;;11.23;3.00;;;17.10;99.90;;;;;;5098761;28;20620;-75
2022/06/10 07:13:29;;;;;;;7.20;3.50;;;17.20;99.90;;;;;;5096321;28;20621;-74
2022/06/10 07:15:57;;;;;;;13.20;3.23;;;17.30;99.90;;;;;;5098043;28;20625;-74
2022/06/10 07:18:23;;;;;;;4.10;2.80;;;17.40;99.90;;;;;;5097318;28;20620;-74
2022/06/10 07:20:50;;;;;;;3.13;2.60;;;17.40;99.90;;;;;;5098057;28;20997;-74
2022/06/10 07:23:19;;;;;;;4.43;2.77;;;17.50;99.90;;;;;;5098099;28;20617;-74
2022/06/10 07:25:47;;;;;;;5.47;2.87;;;17.70;99.90;;;;;;5097921;28;20647;-75
2022/06/10 07:28:14;;;;;;;4.47;2.67;;;17.90;99.90;;;;;;5097800;28;20617;-73
2022/06/10 07:30:41;;;;;;;4.80;3.27;;;17.90;99.90;;;;;;5097837;28;20617;-73
2022/06/10 07:33:08;;;;;;;6.23;2.90;;;17.90;99.90;;;;;;5079848;28;20617;-73
2022/06/10 07:35:35;;;;;;;7.33;3.10;;;17.80;99.90;;;;;;5097535;28;20675;-73
2022/06/10 07:38:02;;;;;;;5.53;3.47;;;17.90;99.90;;;;;;5097979;28;20593;-74
2022/06/10 07:43:24;;;;;;;3.80;3.00;;;18.00;99.90;;;;;;5098318;28;20617;-74
2022/06/10 07:45:52;;;;;;;8.30;2.77;;;18.20;99.90;;;;;;5095463;28;20632;-74
2022/06/10 07:48:19;;;;;;;4.17;3.27;;;18.40;99.90;;;;;;5096718;28;20717;-75
2022/06/10 07:50:47;;;;;;;7.30;3.20;;;18.60;99.90;;;;;;5097355;28;20601;-74
2022/06/10 07:53:14;;;;;;;3.83;3.07;;;18.30;99.90;;;;;;5097692;28;20620;-73
2022/06/10 07:55:41;;;;;;;12.03;3.37;;;18.50;99.90;;;;;;5097517;28;20652;-73
2022/06/10 07:58:08;;;;;;;3.37;2.50;;;18.40;99.90;;;;;;5096867;28;20804;-74
2022/06/10 08:00:35;;;;;;;4.40;2.73;;;18.60;99.90;;;;;;5098960;28;20651;-74
2022/06/10 08:03:02;;;;;;;4.03;2.37;;;18.70;99.90;;;;;;5096815;28;20625;-74
2022/06/10 08:05:29;;;;;;;4.37;2.60;;;19.20;99.90;;;;;;5099090;28;20632;-74
2022/06/10 08:07:56;;;;;;;3.00;2.47;;;19.20;99.90;;;;;;5097701;28;21005;-75
2022/06/10 08:10:33;;;;;;;4.73;2.50;;;19.30;99.90;;;;;;5099558;28;20979;-74
2022/06/10 08:13:00;;;;;;;6.70;3.10;;;19.60;99.90;;;;;;5096910;28;20617;-74
2022/06/10 08:15:27;;;;;;;7.50;2.70;;;20.00;99.90;;;;;;5098021;28;20625;-77
2022/06/10 08:17:56;;;;;;;2.77;2.57;;;19.80;99.90;;;;;;5098770;28;20628;-74
2022/06/10 08:22:32;;;;;;;6.17;2.80;;;19.50;99.90;;;;;;5098435;28;21065;-74
2022/06/10 08:23:14;;;;;;;10.87;2.87;;;19.50;99.90;;;;;;5098415;28;20673;-74
2022/06/10 08:25:41;;;;;;;7.97;3.20;;;19.60;99.90;;;;;;5098252;28;20613;-74
2022/06/10 08:28:09;;;;;;;3.23;2.40;;;19.70;99.90;;;;;;5095807;28;20613;-75
2022/06/10 08:30:36;;;;;;;4.30;2.20;;;19.80;99.90;;;;;;5097272;28;20625;-74
2022/06/10 08:33:03;;;;;;;7.17;2.77;;;20.00;99.90;;;;;;5096664;28;20597;-74
2022/06/10 08:35:35;;;;;;;3.23;2.50;;;19.90;99.90;;;;;;5095666;28;20984;-74
2022/06/10 08:38:04;;;;;;;4.57;2.53;;;20.20;99.90;;;;;;5097108;28;20939;-72
2022/06/10 08:40:39;;;;;;;3.63;1.97;;;20.50;99.90;;;;;;5097153;28;20593;-75
2022/06/10 08:43:22;;;;;;;10.00;3.70;;;20.00;99.90;;;;;;5095044;28;20632;-74
2022/06/10 08:45:57;;;;;;;3.77;2.50;;;20.00;99.90;;;;;;5097344;28;20607;-74
2022/06/10 08:48:34;;;;;;;3.43;2.83;;;20.30;99.90;;;;;;5097352;28;20664;-74
2022/06/10 08:51:33;;;;;;;4.53;3.00;;;20.30;99.90;;;;;;5097453;28;20680;-74
2022/06/10 08:54:32;;;;;;;6.10;2.60;;;20.40;99.90;;;;;;5096103;28;20632;-75
2022/06/10 08:57:06;;;;;;;5.20;3.10;;;20.70;99.90;;;;;;5079047;28;20605;-74
2022/06/10 08:59:43;;;;;;;3.43;2.70;;;20.60;99.90;;;;;;5096276;28;20666;-75
2022/06/10 09:02:28;;;;;;;2.50;2.20;;;20.50;99.90;;;;;;5097272;28;20565;-74
2022/06/10 09:05:13;;;;;;;5.50;3.10;;;20.70;99.90;;;;;;5097049;28;20685;-74
2022/06/10 09:07:47;;;;;;;2.70;2.50;;;21.10;99.90;;;;;;5096705;28;20617;-75
2022/06/10 09:10:32;;;;;;;3.37;2.67;;;21.20;99.90;;;;;;5097715;28;20963;-74
2022/06/10 09:13:13;;;;;;;3.90;2.93;;;21.00;99.90;;;;;;5098249;28;20779;-75
2022/06/10 09:16:03;;;;;;;4.30;3.10;;;20.80;99.90;;;;;;5097809;28;20633;-75
2022/06/10 09:18:54;;;;;;;6.73;3.30;;;21.00;99.90;;;;;;5096855;28;20629;-75
2022/06/10 09:21:29;;;;;;;3.67;3.30;;;21.10;99.90;;;;;;5097427;28;20975;-75
2022/06/10 09:24:00;;;;;;;4.50;3.57;;;21.10;99.90;;;;;;5097664;28;20605;-75
2022/06/10 09:26:35;;;;;;;3.53;3.23;;;21.20;99.90;;;;;;5096532;28;20611;-76
2022/06/10 09:29:03;;;;;;;3.60;3.30;;;21.20;99.90;;;;;;5095687;28;20576;-75
2022/06/10 09:32:08;;;;;;;3.50;3.20;;;21.00;99.90;;;;;;5098278;28;20624;-77
2022/06/10 09:34:54;;;;;;;4.67;3.30;;;21.20;99.90;;;;;;5094947;28;21298;-74
2022/06/10 09:37:29;;;;;;;4.83;3.23;;;21.30;99.90;;;;;;5096012;28;20692;-74
2022/06/10 09:43:26;;;;;;;3.23;2.90;;;21.30;99.90;;;;;;5095126;28;20581;-73
2022/06/10 09:45:56;;;;;;;6.90;3.13;;;21.50;99.90;;;;;;5095302;28;20585;-73
2022/06/10 09:48:46;;;;;;;4.70;3.27;;;21.80;99.90;;;;;;5094418;28;20672;-72
2022/06/10 09:51:40;;;;;;;5.13;3.60;;;21.80;99.90;;;;;;5094743;28;20622;-72
2022/06/10 09:54:39;;;;;;;3.67;3.37;;;21.80;99.90;;;;;;5094668;28;21308;-72
2022/06/10 09:57:11;;;;;;;4.40;3.50;;;21.70;99.90;;;;;;5068016;28;20614;-73
2022/06/10 09:59:47;;;;;;;3.50;3.30;;;22.00;99.90;;;;;;5094565;28;20570;-72
2022/06/10 10:02:26;;;;;;;4.10;3.80;;;22.00;99.90;;;;;;5095728;28;20597;-74
2022/06/10 10:05:05;;;;;;;4.63;3.50;;;22.40;99.90;;;;;;5096328;28;20590;-75
2022/06/10 10:07:57;;;;;;;4.33;4.03;;;22.60;99.90;;;;;;5095748;28;20977;-74
2022/06/10 10:10:31;;;;;;;3.77;3.50;;;22.70;99.90;;;;;;5095784;28;20621;-74
2022/06/10 10:13:06;;;;;;;4.10;3.70;;;22.80;99.90;;;;;;5096122;28;20935;-74
2022/06/10 10:15:49;;;;;;;4.53;3.50;;;22.80;99.90;;;;;;5096106;28;20652;-75
2022/06/10 10:18:34;;;;;;;4.40;4.10;;;23.00;99.90;;;;;;5095621;28;20629;-74
2022/06/10 10:21:09;;;;;;;4.30;4.10;;;22.60;99.90;;;;;;5095597;28;20581;-74
2022/06/10 10:23:44;;;;;;;10.23;4.80;;;22.70;99.90;;;;;;5096434;28;20625;-74
2022/06/10 10:26:32;;;;;;;4.60;4.17;;;23.00;99.90;;;;;;5095472;28;20689;-74
2022/06/10 10:29:12;;;;;;;4.97;4.50;;;22.60;99.90;;;;;;5093551;28;20692;-74
2022/06/10 10:31:44;;;;;;;4.73;4.33;;;22.60;99.90;;;;;;5099645;28;20582;-75
2022/06/10 10:34:21;;;;;;;4.40;4.00;;;22.80;99.90;;;;;;5100454;28;20580;-75
2022/06/10 10:36:50;;;;;;;4.17;3.87;;;23.10;99.90;;;;;;5099529;28;20573;-75
2022/06/10 10:39:27;;;;;;;4.53;4.23;;;23.60;99.90;;;;;;5099103;28;21135;-74
2022/06/10 10:42:01;;;;;;;4.10;3.80;;;23.20;99.90;;;;;;5100638;28;20580;-75
2022/06/10 10:44:33;;;;;;;4.53;4.23;;;23.10;99.90;;;;;;5099758;28;21207;-75
2022/06/10 10:47:09;;;;;;;4.73;4.10;;;23.20;99.90;;;;;;5100515;28;20649;-76
2022/06/10 10:49:50;;;;;;;6.63;4.00;;;23.40;99.90;;;;;;5099422;28;20657;-75
2022/06/10 10:52:19;;;;;;;6.17;4.00;;;23.20;99.90;;;;;;5100244;28;21170;-75
2022/06/10 10:54:50;;;;;;;3.83;3.63;;;23.50;99.90;;;;;;5100322;28;21211;-75
2022/06/10 10:57:25;;;;;;;4.33;3.90;;;23.70;99.90;;;;;;5100823;28;20909;-74
2022/06/10 11:00:14;;;;;;;4.83;4.43;;;23.50;99.90;;;;;;5098825;28;20580;-75
2022/06/10 11:02:42;;;;;;;4.13;3.80;;;23.80;99.90;;;;;;5100213;28;20581;-75
2022/06/10 11:05:35;;;;;;;4.30;4.00;;;24.00;99.90;;;;;;5101016;28;20711;-75
2022/06/10 11:08:28;;;;;;;4.80;4.40;;;23.70;99.90;;;;;;5091352;28;20732;-77
2022/06/10 11:11:17;;;;;;;4.20;4.00;;;23.40;99.90;;;;;;5102129;28;20588;-77
2022/06/10 11:13:49;;;;;;;9.10;4.50;;;23.80;99.90;;;;;;5101022;28;20730;-77
2022/06/10 11:16:17;;;;;;;4.80;4.40;;;24.20;99.90;;;;;;5099250;28;20752;-76
2022/06/10 11:18:46;;;;;;;5.50;4.10;;;23.80;99.90;;;;;;5100824;28;20703;-77
2022/06/10 11:21:13;;;;;;;5.13;4.83;;;24.10;99.90;;;;;;5099654;28;20613;-77
2022/06/10 11:23:53;;;;;;;4.80;4.40;;;24.40;99.90;;;;;;5099795;28;21170;-77
2022/06/10 11:26:22;;;;;;;5.53;5.23;;;24.70;99.90;;;;;;5098735;28;20627;-77
2022/06/10 11:29:00;;;;;;;5.67;5.17;;;24.10;99.90;;;;;;5099814;28;20617;-77
2022/06/10 11:31:52;;;;;;;5.17;4.80;;;24.40;99.90;;;;;;5097993;28;20620;-77
2022/06/10 11:34:40;;;;;;;6.07;5.43;;;24.50;99.90;;;;;;5095861;28;20617;-76
2022/06/10 11:37:25;;;;;;;5.80;5.30;;;24.90;99.90;;;;;;5096982;28;21084;-76
2022/06/10 11:40:17;;;;;;;5.57;5.17;;;25.50;99.90;;;;;;5096928;28;21147;-75
2022/06/10 11:42:50;;;;;;;5.43;5.03;;;26.20;99.90;;;;;;5096487;28;20633;-75
2022/06/10 11:45:24;;;;;;;6.13;5.63;;;27.20;99.90;;;;;;5096951;28;20573;-75
2022/06/10 11:48:13;;;;;;;6.00;5.50;;;27.10;99.90;;;;;;5096858;28;20641;-74
2022/06/10 11:50:55;;;;;;;5.80;5.50;;;27.00;99.90;;;;;;5097111;28;20613;-75
2022/06/10 11:53:39;;;;;;;5.80;5.60;;;26.50;99.90;;;;;;5097596;28;20569;-74
2022/06/10 11:59:54;;;;;;;5.97;5.57;;;25.90;99.90;;;;;;5052249;28;20605;-75
2022/06/10 12:02:30;;;;;;;5.97;5.57;;;26.60;99.90;;;;;;5096872;28;20584;-75
2022/06/10 12:05:01;;;;;;;6.33;5.73;;;27.20;99.90;;;;;;5096727;28;21119;-74
2022/06/10 12:07:30;;;;;;;5.90;5.57;;;26.90;99.90;;;;;;5096665;28;21128;-74
2022/06/10 12:10:01;;;;;;;6.30;5.63;;;27.10;99.90;;;;;;5096824;28;20604;-74
2022/06/10 12:12:35;;;;;;;5.37;5.17;;;27.90;99.90;;;;;;5097012;28;21011;-75
2022/06/10 12:15:18;;;;;;;6.40;5.90;;;26.80;99.90;;;;;;5097188;28;20668;-75
2022/06/10 12:17:47;;;;;;;6.10;5.67;;;26.90;99.90;;;;;;5097703;28;20577;-74
2022/06/10 12:20:20;;;;;;;5.57;5.20;;;26.40;99.90;;;;;;5096930;28;20617;-75
2022/06/10 12:22:47;;;;;;;6.13;5.60;;;26.50;99.90;;;;;;5097139;28;21119;-74
2022/06/10 12:25:35;;;;;;;5.53;5.33;;;26.60;99.90;;;;;;5097279;28;20617;-75
2022/06/10 12:28:17;;;;;;;7.30;5.33;;;27.20;99.90;;;;;;5096361;28;21111;-74
2022/06/10 12:30:53;;;;;;;5.60;5.30;;;27.20;99.90;;;;;;5097228;28;20569;-75
2022/06/10 12:33:37;;;;;;;6.23;5.83;;;28.40;99.90;;;;;;5097387;28;20636;-75
2022/06/10 12:36:06;;;;;;;5.97;5.77;;;28.00;99.90;;;;;;5098965;28;20625;-74
2022/06/10 12:38:38;;;;;;;6.13;5.73;;;27.70;99.90;;;;;;5098948;28;20605;-74
2022/06/10 12:41:12;;;;;;;6.00;5.70;;;27.60;99.90;;;;;;5098216;28;20609;-77
2022/06/10 12:43:58;;;;;;;6.67;6.37;;;28.50;99.90;;;;;;5098760;28;21202;-75
2022/06/10 12:46:35;;;;;;;6.00;5.80;;;28.90;99.90;;;;;;5099062;28;20650;-75
2022/06/10 12:49:41;;;;;;;6.43;6.13;;;28.50;99.90;;;;;;5095981;28;20667;-75
2022/06/10 12:52:37;;;;;;;6.27;5.87;;;28.00;99.90;;;;;;5086199;28;20686;-76
2022/06/10 12:55:21;;;;;;;5.83;5.63;;;28.30;99.90;;;;;;5096226;28;20629;-75
2022/06/10 12:57:48;;;;;;;6.43;6.00;;;28.20;99.90;;;;;;5096777;28;20632;-76
2022/06/10 13:00:18;;;;;;;6.10;5.77;;;28.60;99.90;;;;;;5095599;28;20636;-78
2022/06/10 13:02:44;;;;;;;6.67;6.30;;;27.80;99.90;;;;;;5098433;28;20740;-76
2022/06/10 13:05:28;;;;;;;7.70;6.60;;;28.40;99.90;;;;;;5098979;28;20643;-75
2022/06/10 13:07:55;;;;;;;6.27;5.97;;;29.20;99.90;;;;;;5097507;28;20618;-75
2022/06/10 13:10:37;;;;;;;6.63;6.30;;;30.00;99.90;;;;;;5102095;28;20620;-78
2022/06/10 13:13:23;;;;;;;7.80;5.83;;;31.60;99.90;;;;;;5102441;28;20649;-79
2022/06/10 13:15:53;;;;;;;6.43;6.03;;;30.30;99.90;;;;;;5099191;28;21180;-79
2022/06/10 13:18:27;;;;;;;6.30;5.90;;;30.40;99.90;;;;;;5099503;28;20692;-81
2022/06/10 13:20:54;;;;;;;7.10;6.60;;;29.50;99.90;;;;;;5099535;28;20967;-77
2022/06/10 13:23:24;;;;;;;7.40;6.90;;;28.60;99.90;;;;;;5098996;28;21015;-82
2022/06/10 13:26:06;;;;;;;6.40;6.00;;;30.00;99.90;;;;;;5099157;28;20668;-76
2022/06/10 13:28:38;;;;;;;7.17;6.50;;;29.90;99.90;;;;;;5097977;28;20606;-74
2022/06/10 13:31:20;;;;;;;6.40;6.20;;;31.00;99.90;;;;;;5094532;28;21102;-74
2022/06/10 13:33:57;;;;;;;6.47;6.17;;;29.70;99.90;;;;;;5096655;28;20609;-74